Currently 72°F in Pinon Hills, California, USA
72°F
72°F / 52°F
4 mph NW
0.00"
Friday, September 20, 2019 1:54 PM PDT

Pinon Hills, California Climate Summary
Typical June Day

Normal High:    88.9°F (31.6°C)
Normal Low:    62.3°F (16.8°C)
Average:    76.0°F (24.4°C)

Hour    Temperature    Wind Speed    Humidity
12:00 AM    69°F (20°C)    3 mph    30%
1:00 AM    68°F (20°C)    3 mph    30%
2:00 AM    67°F (19°C)    3 mph    30%
3:00 AM    66°F (19°C)    3 mph    31%
4:00 AM    65°F (19°C)    3 mph    31%
5:00 AM    65°F (18°C)    3 mph    31%
6:00 AM    65°F (18°C)    3 mph    31%
7:00 AM    70°F (21°C)    2 mph    28%
8:00 AM    75°F (24°C)    2 mph    24%
9:00 AM    78°F (25°C)    2 mph    21%
10:00 AM    80°F (27°C)    2 mph    19%
11:00 AM    82°F (28°C)    3 mph    17%
12:00 PM    85°F (29°C)    3 mph    15%
1:00 PM    86°F (30°C)    4 mph    13%
2:00 PM    87°F (31°C)    4 mph    13%
3:00 PM    87°F (31°C)    4 mph    13%
4:00 PM    87°F (31°C)    4 mph    14%
5:00 PM    86°F (30°C)    4 mph    15%
6:00 PM    84°F (29°C)    5 mph    16%
7:00 PM    82°F (28°C)    5 mph    19%
8:00 PM    78°F (25°C)    4 mph    23%
9:00 PM    73°F (23°C)    3 mph    27%
10:00 PM    71°F (22°C)    2 mph    29%
11:00 PM    70°F (21°C)    3 mph    30%
 

The Pinon Hills, California weather pages are a service of WeatherCurrents.
Copyright ©2019  WeatherCurrents. All rights reserved. - Submit questions and comments - Privacy Policy